sensor_id;sensor_type;location;lat;lon;timestamp;temperature;humidity
20744;DHT22;56303;52.160;-0.428;2022-10-29T00:00:15;14.60;99.90
20744;DHT22;56303;52.160;-0.428;2022-10-29T00:02:42;14.60;99.90
20744;DHT22;56303;52.160;-0.428;2022-10-29T00:05:08;14.60;99.90
20744;DHT22;56303;52.160;-0.428;2022-10-29T00:07:35;14.60;99.90
20744;DHT22;56303;52.160;-0.428;2022-10-29T00:10:02;14.60;99.90
20744;DHT22;56303;52.160;-0.428;2022-10-29T00:12:29;14.70;99.90
20744;DHT22;56303;52.160;-0.428;2022-10-29T00:14:56;14.60;99.90
20744;DHT22;56303;52.160;-0.428;2022-10-29T00:17:23;14.90;99.90
20744;DHT22;56303;52.160;-0.428;2022-10-29T00:19:49;15.00;99.90
20744;DHT22;56303;52.160;-0.428;2022-10-29T00:22:16;14.90;99.90
20744;DHT22;56303;52.160;-0.428;2022-10-29T00:24:43;15.00;99.90
20744;DHT22;56303;52.160;-0.428;2022-10-29T00:27:10;15.10;99.90
20744;DHT22;56303;52.160;-0.428;2022-10-29T00:29:36;15.20;99.90
20744;DHT22;56303;52.160;-0.428;2022-10-29T00:32:03;15.10;99.90
20744;DHT22;56303;52.160;-0.428;2022-10-29T00:34:30;15.10;99.90
20744;DHT22;56303;52.160;-0.428;2022-10-29T00:36:57;15.20;99.90
20744;DHT22;56303;52.160;-0.428;2022-10-29T00:39:24;15.30;99.90
20744;DHT22;56303;52.160;-0.428;2022-10-29T00:41:50;14.90;99.90
20744;DHT22;56303;52.160;-0.428;2022-10-29T00:49:24;14.40;99.90
20744;DHT22;56303;52.160;-0.428;2022-10-29T00:51:52;14.10;99.90
20744;DHT22;56303;52.160;-0.428;2022-10-29T00:54:19;14.30;99.90
20744;DHT22;56303;52.160;-0.428;2022-10-29T00:56:52;14.60;99.90
20744;DHT22;56303;52.160;-0.428;2022-10-29T00:59:19;14.50;99.90
20744;DHT22;56303;52.160;-0.428;2022-10-29T01:01:47;14.20;99.90
20744;DHT22;56303;52.160;-0.428;2022-10-29T01:04:16;14.10;99.90
20744;DHT22;56303;52.160;-0.428;2022-10-29T01:06:43;14.10;99.90
20744;DHT22;56303;52.160;-0.428;2022-10-29T01:09:10;14.00;99.90
20744;DHT22;56303;52.160;-0.428;2022-10-29T01:22:41;13.90;99.90
20744;DHT22;56303;52.160;-0.428;2022-10-29T01:28:05;14.10;99.90
20744;DHT22;56303;52.160;-0.428;2022-10-29T01:36:35;13.60;99.90
20744;DHT22;56303;52.160;-0.428;2022-10-29T01:41:38;13.60;99.90
20744;DHT22;56303;52.160;-0.428;2022-10-29T01:44:26;13.80;99.90
20744;DHT22;56303;52.160;-0.428;2022-10-29T01:47:01;14.00;99.90
20744;DHT22;56303;52.160;-0.428;2022-10-29T01:49:40;13.70;99.90
20744;DHT22;56303;52.160;-0.428;2022-10-29T01:52:10;13.70;99.90
20744;DHT22;56303;52.160;-0.428;2022-10-29T01:54:44;13.70;99.90
20744;DHT22;56303;52.160;-0.428;2022-10-29T01:57:37;13.90;99.90
20744;DHT22;56303;52.160;-0.428;2022-10-29T02:00:12;13.80;99.90
20744;DHT22;56303;52.160;-0.428;2022-10-29T02:07:49;13.30;99.90
20744;DHT22;56303;52.160;-0.428;2022-10-29T02:12:52;13.20;99.90
20744;DHT22;56303;52.160;-0.428;2022-10-29T02:15:36;13.30;99.90
20744;DHT22;56303;52.160;-0.428;2022-10-29T02:18:06;13.30;99.90
20744;DHT22;56303;52.160;-0.428;2022-10-29T02:20:34;13.40;99.90
20744;DHT22;56303;52.160;-0.428;2022-10-29T02:23:01;13.40;99.90
20744;DHT22;56303;52.160;-0.428;2022-10-29T02:25:28;13.50;99.90
20744;DHT22;56303;52.160;-0.428;2022-10-29T02:27:55;13.60;99.90
20744;DHT22;56303;52.160;-0.428;2022-10-29T02:30:22;13.60;99.90
20744;DHT22;56303;52.160;-0.428;2022-10-29T02:32:49;13.70;99.90
20744;DHT22;56303;52.160;-0.428;2022-10-29T02:35:16;14.00;99.90
20744;DHT22;56303;52.160;-0.428;2022-10-29T02:37:43;14.10;99.90
20744;DHT22;56303;52.160;-0.428;2022-10-29T02:40:10;13.90;99.90
20744;DHT22;56303;52.160;-0.428;2022-10-29T02:42:37;13.60;99.90
20744;DHT22;56303;52.160;-0.428;2022-10-29T02:45:04;13.50;99.90
20744;DHT22;56303;52.160;-0.428;2022-10-29T02:47:31;13.20;99.90
20744;DHT22;56303;52.160;-0.428;2022-10-29T02:49:58;13.00;99.90
20744;DHT22;56303;52.160;-0.428;2022-10-29T02:52:25;13.30;99.90
20744;DHT22;56303;52.160;-0.428;2022-10-29T02:54:52;13.60;99.90
20744;DHT22;56303;52.160;-0.428;2022-10-29T02:57:19;13.70;99.90
20744;DHT22;56303;52.160;-0.428;2022-10-29T02:59:46;14.00;99.90
20744;DHT22;56303;52.160;-0.428;2022-10-29T03:02:12;14.10;99.90
20744;DHT22;56303;52.160;-0.428;2022-10-29T03:04:39;14.10;99.90
20744;DHT22;56303;52.160;-0.428;2022-10-29T03:07:07;14.20;99.90
20744;DHT22;56303;52.160;-0.428;2022-10-29T03:09:33;14.30;99.90
20744;DHT22;56303;52.160;-0.428;2022-10-29T03:12:00;14.40;99.90
20744;DHT22;56303;52.160;-0.428;2022-10-29T03:14:27;14.60;99.90
20744;DHT22;56303;52.160;-0.428;2022-10-29T03:16:54;14.20;99.90
20744;DHT22;56303;52.160;-0.428;2022-10-29T03:19:20;14.10;99.90
20744;DHT22;56303;52.160;-0.428;2022-10-29T03:21:47;13.80;99.90
20744;DHT22;56303;52.160;-0.428;2022-10-29T03:24:14;13.80;99.90
20744;DHT22;56303;52.160;-0.428;2022-10-29T03:26:41;13.70;99.90
20744;DHT22;56303;52.160;-0.428;2022-10-29T03:29:07;13.70;99.90
20744;DHT22;56303;52.160;-0.428;2022-10-29T03:31:34;14.10;99.90
20744;DHT22;56303;52.160;-0.428;2022-10-29T03:34:01;14.20;99.90
20744;DHT22;56303;52.160;-0.428;2022-10-29T03:36:28;14.40;99.90
20744;DHT22;56303;52.160;-0.428;2022-10-29T03:38:54;14.70;99.90
20744;DHT22;56303;52.160;-0.428;2022-10-29T03:41:21;14.80;99.90
20744;DHT22;56303;52.160;-0.428;2022-10-29T03:43:48;14.90;99.90
20744;DHT22;56303;52.160;-0.428;2022-10-29T03:46:15;15.10;99.90
20744;DHT22;56303;52.160;-0.428;2022-10-29T03:48:41;15.20;99.90
20744;DHT22;56303;52.160;-0.428;2022-10-29T03:51:09;15.30;99.90
20744;DHT22;56303;52.160;-0.428;2022-10-29T03:53:36;15.00;99.90
20744;DHT22;56303;52.160;-0.428;2022-10-29T03:56:03;14.80;99.90
20744;DHT22;56303;52.160;-0.428;2022-10-29T03:58:30;14.80;99.90
20744;DHT22;56303;52.160;-0.428;2022-10-29T04:00:59;14.50;99.90
20744;DHT22;56303;52.160;-0.428;2022-10-29T04:03:28;14.50;99.90
20744;DHT22;56303;52.160;-0.428;2022-10-29T04:05:55;14.30;99.90
20744;DHT22;56303;52.160;-0.428;2022-10-29T04:08:22;13.90;99.90
20744;DHT22;56303;52.160;-0.428;2022-10-29T04:10:50;13.70;99.90
20744;DHT22;56303;52.160;-0.428;2022-10-29T04:13:17;13.70;99.90
20744;DHT22;56303;52.160;-0.428;2022-10-29T04:15:44;13.70;99.90
20744;DHT22;56303;52.160;-0.428;2022-10-29T04:18:11;13.60;99.90
20744;DHT22;56303;52.160;-0.428;2022-10-29T04:20:39;13.40;99.90
20744;DHT22;56303;52.160;-0.428;2022-10-29T04:23:27;13.80;99.90
20744;DHT22;56303;52.160;-0.428;2022-10-29T04:26:14;13.80;99.90
20744;DHT22;56303;52.160;-0.428;2022-10-29T04:29:01;13.80;99.90
20744;DHT22;56303;52.160;-0.428;2022-10-29T04:31:27;13.80;99.90
20744;DHT22;56303;52.160;-0.428;2022-10-29T04:33:54;13.80;99.90
20744;DHT22;56303;52.160;-0.428;2022-10-29T04:36:21;13.70;99.90
20744;DHT22;56303;52.160;-0.428;2022-10-29T04:38:49;13.50;99.90
20744;DHT22;56303;52.160;-0.428;2022-10-29T04:41:16;13.30;99.90
20744;DHT22;56303;52.160;-0.428;2022-10-29T04:43:43;13.10;99.90
20744;DHT22;56303;52.160;-0.428;2022-10-29T04:46:10;13.20;99.90
20744;DHT22;56303;52.160;-0.428;2022-10-29T04:48:37;13.10;99.90
20744;DHT22;56303;52.160;-0.428;2022-10-29T04:51:04;13.00;99.90
20744;DHT22;56303;52.160;-0.428;2022-10-29T04:53:31;12.90;99.90
20744;DHT22;56303;52.160;-0.428;2022-10-29T04:55:59;12.80;99.90
20744;DHT22;56303;52.160;-0.428;2022-10-29T04:58:27;12.90;99.90
20744;DHT22;56303;52.160;-0.428;2022-10-29T05:01:00;13.10;99.90
20744;DHT22;56303;52.160;-0.428;2022-10-29T05:03:28;13.00;99.90
20744;DHT22;56303;52.160;-0.428;2022-10-29T05:05:55;13.00;99.90
20744;DHT22;56303;52.160;-0.428;2022-10-29T05:08:22;13.20;99.90
20744;DHT22;56303;52.160;-0.428;2022-10-29T05:10:48;13.40;99.90
20744;DHT22;56303;52.160;-0.428;2022-10-29T05:13:15;13.30;99.90
20744;DHT22;56303;52.160;-0.428;2022-10-29T05:15:42;13.30;99.90
20744;DHT22;56303;52.160;-0.428;2022-10-29T05:18:09;13.20;99.90
20744;DHT22;56303;52.160;-0.428;2022-10-29T05:20:36;13.20;99.90
20744;DHT22;56303;52.160;-0.428;2022-10-29T05:23:08;13.00;99.90
20744;DHT22;56303;52.160;-0.428;2022-10-29T05:25:37;13.00;99.90
20744;DHT22;56303;52.160;-0.428;2022-10-29T05:28:08;13.00;99.90
20744;DHT22;56303;52.160;-0.428;2022-10-29T05:30:35;12.90;99.90
20744;DHT22;56303;52.160;-0.428;2022-10-29T05:33:07;12.90;99.90
20744;DHT22;56303;52.160;-0.428;2022-10-29T05:35:34;12.80;99.90
20744;DHT22;56303;52.160;-0.428;2022-10-29T05:38:02;12.80;99.90
20744;DHT22;56303;52.160;-0.428;2022-10-29T05:40:29;12.80;99.90
20744;DHT22;56303;52.160;-0.428;2022-10-29T05:42:56;12.70;99.90
20744;DHT22;56303;52.160;-0.428;2022-10-29T05:45:23;12.80;99.90
20744;DHT22;56303;52.160;-0.428;2022-10-29T05:48:01;12.80;99.90
20744;DHT22;56303;52.160;-0.428;2022-10-29T05:50:29;12.80;99.90
20744;DHT22;56303;52.160;-0.428;2022-10-29T05:53:05;12.80;99.90
20744;DHT22;56303;52.160;-0.428;2022-10-29T05:55:33;12.80;99.90
20744;DHT22;56303;52.160;-0.428;2022-10-29T05:58:03;13.00;99.90
20744;DHT22;56303;52.160;-0.428;2022-10-29T06:00:33;12.90;99.90
20744;DHT22;56303;52.160;-0.428;2022-10-29T06:03:00;12.70;99.90
20744;DHT22;56303;52.160;-0.428;2022-10-29T06:05:27;12.70;99.90
20744;DHT22;56303;52.160;-0.428;2022-10-29T06:07:55;12.90;99.90
20744;DHT22;56303;52.160;-0.428;2022-10-29T06:10:25;12.60;99.90
20744;DHT22;56303;52.160;-0.428;2022-10-29T06:12:52;12.70;99.90
20744;DHT22;56303;52.160;-0.428;2022-10-29T06:15:20;12.70;99.90
20744;DHT22;56303;52.160;-0.428;2022-10-29T06:17:47;12.80;99.90
20744;DHT22;56303;52.160;-0.428;2022-10-29T06:20:16;13.00;99.90
20744;DHT22;56303;52.160;-0.428;2022-10-29T06:22:43;12.90;99.90
20744;DHT22;56303;52.160;-0.428;2022-10-29T06:25:10;12.90;99.90
20744;DHT22;56303;52.160;-0.428;2022-10-29T06:27:37;12.90;99.90
20744;DHT22;56303;52.160;-0.428;2022-10-29T06:30:04;12.80;99.90
20744;DHT22;56303;52.160;-0.428;2022-10-29T06:32:32;12.90;99.90
20744;DHT22;56303;52.160;-0.428;2022-10-29T06:34:59;12.90;99.90
20744;DHT22;56303;52.160;-0.428;2022-10-29T06:37:25;13.00;99.90
20744;DHT22;56303;52.160;-0.428;2022-10-29T06:39:52;13.00;99.90
20744;DHT22;56303;52.160;-0.428;2022-10-29T06:42:19;13.00;99.90
20744;DHT22;56303;52.160;-0.428;2022-10-29T06:44:46;13.00;99.90
20744;DHT22;56303;52.160;-0.428;2022-10-29T06:47:13;13.00;99.90
20744;DHT22;56303;52.160;-0.428;2022-10-29T06:49:39;13.10;99.90
20744;DHT22;56303;52.160;-0.428;2022-10-29T06:52:06;13.10;99.90
20744;DHT22;56303;52.160;-0.428;2022-10-29T06:54:33;13.10;99.90
20744;DHT22;56303;52.160;-0.428;2022-10-29T06:57:00;13.10;99.90
20744;DHT22;56303;52.160;-0.428;2022-10-29T06:59:27;13.10;99.90
20744;DHT22;56303;52.160;-0.428;2022-10-29T07:01:54;13.20;99.90
20744;DHT22;56303;52.160;-0.428;2022-10-29T07:04:21;13.30;99.90
20744;DHT22;56303;52.160;-0.428;2022-10-29T07:06:47;13.20;99.90
20744;DHT22;56303;52.160;-0.428;2022-10-29T07:09:14;13.10;99.90
20744;DHT22;56303;52.160;-0.428;2022-10-29T07:11:41;13.20;99.90
20744;DHT22;56303;52.160;-0.428;2022-10-29T07:14:08;13.20;99.90
20744;DHT22;56303;52.160;-0.428;2022-10-29T07:16:35;13.30;99.90
20744;DHT22;56303;52.160;-0.428;2022-10-29T07:19:05;13.30;99.90
20744;DHT22;56303;52.160;-0.428;2022-10-29T07:21:32;13.30;99.90
20744;DHT22;56303;52.160;-0.428;2022-10-29T07:23:59;13.30;99.90
20744;DHT22;56303;52.160;-0.428;2022-10-29T07:26:25;13.50;99.90
20744;DHT22;56303;52.160;-0.428;2022-10-29T07:28:55;13.50;99.90
20744;DHT22;56303;52.160;-0.428;2022-10-29T07:31:23;13.50;99.90
20744;DHT22;56303;52.160;-0.428;2022-10-29T07:33:50;13.50;99.90
20744;DHT22;56303;52.160;-0.428;2022-10-29T07:36:17;13.50;99.90
20744;DHT22;56303;52.160;-0.428;2022-10-29T07:38:44;13.50;99.90
20744;DHT22;56303;52.160;-0.428;2022-10-29T07:41:11;13.50;99.90
20744;DHT22;56303;52.160;-0.428;2022-10-29T07:43:38;13.50;99.90
20744;DHT22;56303;52.160;-0.428;2022-10-29T07:46:05;13.60;99.90
20744;DHT22;56303;52.160;-0.428;2022-10-29T07:48:32;14.00;99.90
20744;DHT22;56303;52.160;-0.428;2022-10-29T07:51:00;14.30;99.90
20744;DHT22;56303;52.160;-0.428;2022-10-29T07:53:27;14.30;99.90
20744;DHT22;56303;52.160;-0.428;2022-10-29T07:55:57;14.30;99.90
20744;DHT22;56303;52.160;-0.428;2022-10-29T07:58:25;14.30;99.90
20744;DHT22;56303;52.160;-0.428;2022-10-29T08:00:52;14.30;99.90
20744;DHT22;56303;52.160;-0.428;2022-10-29T08:03:19;14.40;99.90
20744;DHT22;56303;52.160;-0.428;2022-10-29T08:05:46;14.50;99.90
20744;DHT22;56303;52.160;-0.428;2022-10-29T08:08:22;14.30;99.90
20744;DHT22;56303;52.160;-0.428;2022-10-29T08:10:49;14.40;99.90
20744;DHT22;56303;52.160;-0.428;2022-10-29T08:13:15;14.70;99.90
20744;DHT22;56303;52.160;-0.428;2022-10-29T08:15:45;15.00;99.90
20744;DHT22;56303;52.160;-0.428;2022-10-29T08:18:16;15.00;99.90
20744;DHT22;56303;52.160;-0.428;2022-10-29T08:20:43;15.00;99.90
20744;DHT22;56303;52.160;-0.428;2022-10-29T08:23:11;14.80;99.90
20744;DHT22;56303;52.160;-0.428;2022-10-29T08:25:37;14.70;99.90
20744;DHT22;56303;52.160;-0.428;2022-10-29T08:28:09;14.50;99.90
20744;DHT22;56303;52.160;-0.428;2022-10-29T08:30:37;14.50;99.90
20744;DHT22;56303;52.160;-0.428;2022-10-29T08:33:04;14.30;99.90
20744;DHT22;56303;52.160;-0.428;2022-10-29T08:35:32;14.30;99.90
20744;DHT22;56303;52.160;-0.428;2022-10-29T08:37:59;14.30;99.90
20744;DHT22;56303;52.160;-0.428;2022-10-29T08:40:42;14.40;99.90
20744;DHT22;56303;52.160;-0.428;2022-10-29T08:45:53;14.60;99.90
20744;DHT22;56303;52.160;-0.428;2022-10-29T08:48:38;14.90;99.90
20744;DHT22;56303;52.160;-0.428;2022-10-29T08:51:13;15.00;99.90
20744;DHT22;56303;52.160;-0.428;2022-10-29T08:53:50;15.40;99.90
20744;DHT22;56303;52.160;-0.428;2022-10-29T08:56:39;15.70;99.90
20744;DHT22;56303;52.160;-0.428;2022-10-29T08:59:18;16.00;99.90
20744;DHT22;56303;52.160;-0.428;2022-10-29T09:01:46;15.40;99.90
20744;DHT22;56303;52.160;-0.428;2022-10-29T09:04:31;15.30;99.90
20744;DHT22;56303;52.160;-0.428;2022-10-29T09:09:50;15.70;99.90
20744;DHT22;56303;52.160;-0.428;2022-10-29T09:24:17;15.80;99.90
20744;DHT22;56303;52.160;-0.428;2022-10-29T09:26:57;15.80;99.90
20744;DHT22;56303;52.160;-0.428;2022-10-29T09:34:43;16.00;99.90
20744;DHT22;56303;52.160;-0.428;2022-10-29T09:37:17;16.20;99.90
20744;DHT22;56303;52.160;-0.428;2022-10-29T09:39:46;16.00;99.90
20744;DHT22;56303;52.160;-0.428;2022-10-29T09:42:23;16.10;99.90
20744;DHT22;56303;52.160;-0.428;2022-10-29T09:44:54;16.50;99.90
20744;DHT22;56303;52.160;-0.428;2022-10-29T09:48:04;16.40;99.90
20744;DHT22;56303;52.160;-0.428;2022-10-29T09:50:40;16.50;99.90
20744;DHT22;56303;52.160;-0.428;2022-10-29T09:53:10;16.80;99.90
20744;DHT22;56303;52.160;-0.428;2022-10-29T09:55:42;16.90;99.90
20744;DHT22;56303;52.160;-0.428;2022-10-29T09:58:20;17.10;99.90
20744;DHT22;56303;52.160;-0.428;2022-10-29T10:00:47;17.50;99.90
20744;DHT22;56303;52.160;-0.428;2022-10-29T10:06:02;17.80;99.90
20744;DHT22;56303;52.160;-0.428;2022-10-29T10:08:30;17.80;99.90
20744;DHT22;56303;52.160;-0.428;2022-10-29T10:11:02;17.90;99.90
20744;DHT22;56303;52.160;-0.428;2022-10-29T10:13:52;18.00;99.90
20744;DHT22;56303;52.160;-0.428;2022-10-29T10:16:32;18.10;99.90
20744;DHT22;56303;52.160;-0.428;2022-10-29T10:18:59;18.30;99.90
20744;DHT22;56303;52.160;-0.428;2022-10-29T10:21:30;18.30;99.90
20744;DHT22;56303;52.160;-0.428;2022-10-29T10:23:58;18.30;99.90
20744;DHT22;56303;52.160;-0.428;2022-10-29T10:26:38;18.50;99.90
20744;DHT22;56303;52.160;-0.428;2022-10-29T10:29:27;18.70;99.90
20744;DHT22;56303;52.160;-0.428;2022-10-29T10:34:26;18.90;99.90
20744;DHT22;56303;52.160;-0.428;2022-10-29T10:39:50;19.10;99.90
20744;DHT22;56303;52.160;-0.428;2022-10-29T10:42:24;19.10;99.90
20744;DHT22;56303;52.160;-0.428;2022-10-29T10:44:56;18.80;99.90
20744;DHT22;56303;52.160;-0.428;2022-10-29T10:47:27;19.00;99.90
20744;DHT22;56303;52.160;-0.428;2022-10-29T10:50:20;19.00;99.90
20744;DHT22;56303;52.160;-0.428;2022-10-29T10:52:49;19.00;99.90
20744;DHT22;56303;52.160;-0.428;2022-10-29T10:55:38;19.20;99.90
20744;DHT22;56303;52.160;-0.428;2022-10-29T10:58:30;19.40;99.90
20744;DHT22;56303;52.160;-0.428;2022-10-29T11:01:12;19.30;99.90
20744;DHT22;56303;52.160;-0.428;2022-10-29T11:03:45;19.60;99.90
20744;DHT22;56303;52.160;-0.428;2022-10-29T11:06:15;19.70;99.90
20744;DHT22;56303;52.160;-0.428;2022-10-29T11:11:43;19.70;99.90
20744;DHT22;56303;52.160;-0.428;2022-10-29T11:14:21;19.90;99.90
20744;DHT22;56303;52.160;-0.428;2022-10-29T11:16:53;20.00;99.90
20744;DHT22;56303;52.160;-0.428;2022-10-29T11:30:49;19.70;99.90
20744;DHT22;56303;52.160;-0.428;2022-10-29T11:36:20;20.00;99.90
20744;DHT22;56303;52.160;-0.428;2022-10-29T11:41:58;20.10;99.90
20744;DHT22;56303;52.160;-0.428;2022-10-29T11:44:26;20.10;99.90
20744;DHT22;56303;52.160;-0.428;2022-10-29T11:47:14;20.50;99.90
20744;DHT22;56303;52.160;-0.428;2022-10-29T11:52:29;21.00;99.90
20744;DHT22;56303;52.160;-0.428;2022-10-29T11:55:27;21.20;99.90
20744;DHT22;56303;52.160;-0.428;2022-10-29T11:58:09;21.30;99.90
20744;DHT22;56303;52.160;-0.428;2022-10-29T12:06:20;21.90;99.90
20744;DHT22;56303;52.160;-0.428;2022-10-29T12:09:00;21.90;99.90
20744;DHT22;56303;52.160;-0.428;2022-10-29T12:11:38;22.30;99.90
20744;DHT22;56303;52.160;-0.428;2022-10-29T12:19:59;23.30;99.90
20744;DHT22;56303;52.160;-0.428;2022-10-29T12:22:50;24.00;99.90
20744;DHT22;56303;52.160;-0.428;2022-10-29T12:28:34;23.20;99.90
20744;DHT22;56303;52.160;-0.428;2022-10-29T12:31:07;23.00;99.90
20744;DHT22;56303;52.160;-0.428;2022-10-29T12:34:04;23.20;99.90
20744;DHT22;56303;52.160;-0.428;2022-10-29T12:36:40;23.80;99.90
20744;DHT22;56303;52.160;-0.428;2022-10-29T12:39:58;23.70;99.90
20744;DHT22;56303;52.160;-0.428;2022-10-29T12:42:25;23.50;99.90
20744;DHT22;56303;52.160;-0.428;2022-10-29T12:45:35;23.70;99.90
20744;DHT22;56303;52.160;-0.428;2022-10-29T12:48:31;24.20;99.90
20744;DHT22;56303;52.160;-0.428;2022-10-29T12:53:44;23.90;99.90
20744;DHT22;56303;52.160;-0.428;2022-10-29T12:56:12;23.30;99.90
20744;DHT22;56303;52.160;-0.428;2022-10-29T12:58:50;22.80;99.90
20744;DHT22;56303;52.160;-0.428;2022-10-29T13:09:43;23.30;99.90
20744;DHT22;56303;52.160;-0.428;2022-10-29T13:15:22;23.60;99.90
20744;DHT22;56303;52.160;-0.428;2022-10-29T13:17:51;23.80;99.90
20744;DHT22;56303;52.160;-0.428;2022-10-29T13:20:33;24.00;99.90
20744;DHT22;56303;52.160;-0.428;2022-10-29T13:23:02;23.70;99.90
20744;DHT22;56303;52.160;-0.428;2022-10-29T13:30:36;23.50;99.90
20744;DHT22;56303;52.160;-0.428;2022-10-29T13:38:18;23.90;99.90
20744;DHT22;56303;52.160;-0.428;2022-10-29T13:44:13;23.60;99.90
20744;DHT22;56303;52.160;-0.428;2022-10-29T13:47:13;23.60;99.90
20744;DHT22;56303;52.160;-0.428;2022-10-29T13:49:46;23.70;99.90
20744;DHT22;56303;52.160;-0.428;2022-10-29T13:52:17;24.00;99.90
20744;DHT22;56303;52.160;-0.428;2022-10-29T13:55:06;23.90;99.90
20744;DHT22;56303;52.160;-0.428;2022-10-29T14:00:20;23.70;99.90
20744;DHT22;56303;52.160;-0.428;2022-10-29T14:02:55;23.50;99.90
20744;DHT22;56303;52.160;-0.428;2022-10-29T14:08:36;23.60;99.90
20744;DHT22;56303;52.160;-0.428;2022-10-29T14:11:17;23.90;99.90
20744;DHT22;56303;52.160;-0.428;2022-10-29T14:13:48;23.90;99.90
20744;DHT22;56303;52.160;-0.428;2022-10-29T14:16:16;24.10;99.90
20744;DHT22;56303;52.160;-0.428;2022-10-29T14:18:49;23.80;99.90
20744;DHT22;56303;52.160;-0.428;2022-10-29T14:21:17;23.90;99.90
20744;DHT22;56303;52.160;-0.428;2022-10-29T14:24:05;23.50;99.90
20744;DHT22;56303;52.160;-0.428;2022-10-29T14:26:35;24.00;99.90
20744;DHT22;56303;52.160;-0.428;2022-10-29T14:31:44;23.80;99.90
20744;DHT22;56303;52.160;-0.428;2022-10-29T14:34:30;24.00;99.90
20744;DHT22;56303;52.160;-0.428;2022-10-29T14:37:03;24.00;99.90
20744;DHT22;56303;52.160;-0.428;2022-10-29T14:39:38;24.40;99.90
20744;DHT22;56303;52.160;-0.428;2022-10-29T14:42:44;24.70;99.90
20744;DHT22;56303;52.160;-0.428;2022-10-29T14:45:21;24.50;99.90
20744;DHT22;56303;52.160;-0.428;2022-10-29T14:47:54;24.50;99.90
20744;DHT22;56303;52.160;-0.428;2022-10-29T14:50:24;25.10;99.90
20744;DHT22;56303;52.160;-0.428;2022-10-29T14:52:56;24.60;99.90
20744;DHT22;56303;52.160;-0.428;2022-10-29T14:55:34;23.40;99.90
20744;DHT22;56303;52.160;-0.428;2022-10-29T15:00:32;23.30;99.90
20744;DHT22;56303;52.160;-0.428;2022-10-29T15:03:04;22.60;99.90
20744;DHT22;56303;52.160;-0.428;2022-10-29T15:05:34;22.40;99.90
20744;DHT22;56303;52.160;-0.428;2022-10-29T15:10:52;22.90;99.90
20744;DHT22;56303;52.160;-0.428;2022-10-29T15:16:02;22.30;99.90
20744;DHT22;56303;52.160;-0.428;2022-10-29T15:18:32;22.40;99.90
20744;DHT22;56303;52.160;-0.428;2022-10-29T15:20:59;22.30;99.90
20744;DHT22;56303;52.160;-0.428;2022-10-29T15:23:34;22.50;99.90
20744;DHT22;56303;52.160;-0.428;2022-10-29T15:26:06;22.70;99.90
20744;DHT22;56303;52.160;-0.428;2022-10-29T15:28:38;23.30;99.90
20744;DHT22;56303;52.160;-0.428;2022-10-29T15:31:10;23.50;99.90
20744;DHT22;56303;52.160;-0.428;2022-10-29T15:33:42;23.70;99.90
20744;DHT22;56303;52.160;-0.428;2022-10-29T15:36:08;23.70;99.90
20744;DHT22;56303;52.160;-0.428;2022-10-29T15:38:57;23.90;99.90
20744;DHT22;56303;52.160;-0.428;2022-10-29T15:41:33;23.60;99.90
20744;DHT22;56303;52.160;-0.428;2022-10-29T15:44:01;23.40;99.90
20744;DHT22;56303;52.160;-0.428;2022-10-29T15:46:31;23.10;99.90
20744;DHT22;56303;52.160;-0.428;2022-10-29T15:49:00;22.60;99.90
20744;DHT22;56303;52.160;-0.428;2022-10-29T15:51:31;22.60;99.90
20744;DHT22;56303;52.160;-0.428;2022-10-29T15:54:01;22.60;99.90
20744;DHT22;56303;52.160;-0.428;2022-10-29T15:56:30;22.60;99.90
20744;DHT22;56303;52.160;-0.428;2022-10-29T15:58:57;22.50;99.90
20744;DHT22;56303;52.160;-0.428;2022-10-29T16:01:25;22.20;99.90
20744;DHT22;56303;52.160;-0.428;2022-10-29T16:03:53;22.10;99.90
20744;DHT22;56303;52.160;-0.428;2022-10-29T16:06:19;21.80;99.90
20744;DHT22;56303;52.160;-0.428;2022-10-29T16:08:47;21.80;99.90
20744;DHT22;56303;52.160;-0.428;2022-10-29T16:11:19;21.80;99.90
20744;DHT22;56303;52.160;-0.428;2022-10-29T16:13:47;22.00;99.90
20744;DHT22;56303;52.160;-0.428;2022-10-29T16:16:22;22.00;99.90
20744;DHT22;56303;52.160;-0.428;2022-10-29T16:18:49;21.90;99.90
20744;DHT22;56303;52.160;-0.428;2022-10-29T16:21:19;21.90;99.90
20744;DHT22;56303;52.160;-0.428;2022-10-29T16:23:47;21.80;99.90
20744;DHT22;56303;52.160;-0.428;2022-10-29T16:26:16;21.70;99.90
20744;DHT22;56303;52.160;-0.428;2022-10-29T16:28:43;21.60;99.90
20744;DHT22;56303;52.160;-0.428;2022-10-29T16:31:26;21.50;99.90
20744;DHT22;56303;52.160;-0.428;2022-10-29T16:33:57;21.50;99.90
20744;DHT22;56303;52.160;-0.428;2022-10-29T16:36:24;21.50;99.90
20744;DHT22;56303;52.160;-0.428;2022-10-29T16:38:51;21.30;99.90
20744;DHT22;56303;52.160;-0.428;2022-10-29T16:41:18;21.10;99.90
20744;DHT22;56303;52.160;-0.428;2022-10-29T16:43:46;21.10;99.90
20744;DHT22;56303;52.160;-0.428;2022-10-29T16:46:13;21.10;99.90
20744;DHT22;56303;52.160;-0.428;2022-10-29T16:48:40;21.20;99.90
20744;DHT22;56303;52.160;-0.428;2022-10-29T16:51:07;21.00;99.90
20744;DHT22;56303;52.160;-0.428;2022-10-29T16:53:34;21.10;99.90
20744;DHT22;56303;52.160;-0.428;2022-10-29T16:56:01;21.00;99.90
20744;DHT22;56303;52.160;-0.428;2022-10-29T16:58:28;21.00;99.90
20744;DHT22;56303;52.160;-0.428;2022-10-29T17:01:05;21.10;99.90
20744;DHT22;56303;52.160;-0.428;2022-10-29T17:03:32;21.00;99.90
20744;DHT22;56303;52.160;-0.428;2022-10-29T17:06:04;20.80;99.90
20744;DHT22;56303;52.160;-0.428;2022-10-29T17:08:33;20.80;99.90
20744;DHT22;56303;52.160;-0.428;2022-10-29T17:11:01;20.70;99.90
20744;DHT22;56303;52.160;-0.428;2022-10-29T17:13:29;20.70;99.90
20744;DHT22;56303;52.160;-0.428;2022-10-29T17:15:56;20.60;99.90
20744;DHT22;56303;52.160;-0.428;2022-10-29T17:18:23;20.60;99.90
20744;DHT22;56303;52.160;-0.428;2022-10-29T17:20:58;20.70;99.90
20744;DHT22;56303;52.160;-0.428;2022-10-29T17:23:26;20.70;99.90
20744;DHT22;56303;52.160;-0.428;2022-10-29T17:25:56;20.60;99.90
20744;DHT22;56303;52.160;-0.428;2022-10-29T17:28:25;20.70;99.90
20744;DHT22;56303;52.160;-0.428;2022-10-29T17:30:52;20.70;99.90
20744;DHT22;56303;52.160;-0.428;2022-10-29T17:33:19;20.70;99.90
20744;DHT22;56303;52.160;-0.428;2022-10-29T17:35:46;20.60;99.90
20744;DHT22;56303;52.160;-0.428;2022-10-29T17:38:12;20.50;99.90
20744;DHT22;56303;52.160;-0.428;2022-10-29T17:40:42;20.50;99.90
20744;DHT22;56303;52.160;-0.428;2022-10-29T17:43:09;20.70;99.90
20744;DHT22;56303;52.160;-0.428;2022-10-29T17:45:36;20.50;99.90
20744;DHT22;56303;52.160;-0.428;2022-10-29T17:48:03;20.50;99.90
20744;DHT22;56303;52.160;-0.428;2022-10-29T17:50:30;20.50;99.90
20744;DHT22;56303;52.160;-0.428;2022-10-29T17:52:57;20.60;99.90
20744;DHT22;56303;52.160;-0.428;2022-10-29T17:55:23;20.50;99.90
20744;DHT22;56303;52.160;-0.428;2022-10-29T17:57:50;20.40;99.90
20744;DHT22;56303;52.160;-0.428;2022-10-29T18:00:17;20.30;99.90
20744;DHT22;56303;52.160;-0.428;2022-10-29T18:02:47;20.20;99.90
20744;DHT22;56303;52.160;-0.428;2022-10-29T18:05:16;20.20;99.90